»·PEaware :: N751LU KSBP-KSBP

N751LU :: KSBP-KSBP

FLIGHT INFORMATION

Flight Status: Arrived
Operator: Privately registered:
United States
More flights under this callsign
Pilot: Eric V. (43329)
Aircraft: PIPER PA-28 CHEROKEE ARCHER
(P28A)
More flights by this aircraft type
Origin: KSBP San Luis Co Regl
United States
Destination: KSBP San Luis Co Regl
United States
More flights between these airports :: More routes between these airports
Route: -
File this flight plan on PilotEdge
Remarks: Pattern Work
Altitude:
(Current/Filed)
1,000ft
Speed:
(Current/Filed)
120kts
Departed: 15-Mar-23 10:20 AM
Arrived: 15-Mar-23 10:42 AM
Distance/Time
Traveled:
0nm/0:22
Distance/Time
To Go:
Arrived

Flight Plot

Page will automatically refresh every two minutes.

Flight plan parsing failed; only flown route is shown


Map Options




Map Legend


Flown Route
Filed Route
Departure Airport
Arrival Airport
Navaid (VOR, NDB)
Fix

Horizontal Profiles

Position Reports

Time Latitude Longitude Heading Altitude Ground
Speed
15-Mar-23 09:51 35.238719 -120.640904 221 190ft 0kts
15-Mar-23 09:52 35.238719 -120.640904 221 190ft 0kts
15-Mar-23 09:53 35.238719 -120.640904 221 190ft 0kts
15-Mar-23 09:54 35.238719 -120.640904 221 190ft 0kts
15-Mar-23 09:55 35.238719 -120.640904 221 190ft 0kts
15-Mar-23 09:56 35.238719 -120.640904 221 190ft 0kts
15-Mar-23 09:57 35.238719 -120.640904 221 190ft 0kts
15-Mar-23 09:58 35.238719 -120.640904 221 190ft 0kts
15-Mar-23 09:59 35.238720 -120.640904 221 190ft 0kts
15-Mar-23 10:00 35.238720 -120.640903 221 190ft 0kts
15-Mar-23 10:01 35.238115 -120.640671 123 191ft 6kts
15-Mar-23 10:02 35.236553 -120.637725 123 199ft 12kts
15-Mar-23 10:03 35.234837 -120.634717 125 209ft 7kts
15-Mar-23 10:04 35.234133 -120.633981 210 212ft 0kts
15-Mar-23 10:05 35.234133 -120.633981 210 212ft 0kts
15-Mar-23 10:06 35.234133 -120.633981 210 212ft 0kts
15-Mar-23 10:07 35.235144 -120.635261 306 210ft 17kts
15-Mar-23 10:08 35.237436 -120.639307 306 207ft 12kts
15-Mar-23 10:09 35.238484 -120.640131 253 197ft 0kts
15-Mar-23 10:10 35.238484 -120.640131 253 197ft 0kts
15-Mar-23 10:11 35.238484 -120.640131 253 197ft 0kts
15-Mar-23 10:12 35.238484 -120.640131 253 197ft 0kts
15-Mar-23 10:14 35.238484 -120.640130 253 197ft 0kts
15-Mar-23 10:15 35.237618 -120.639603 125 209ft 11kts
15-Mar-23 10:16 35.235312 -120.635559 126 206ft 15kts
15-Mar-23 10:17 35.233221 -120.632416 208 218ft 0kts
15-Mar-23 10:18 35.233221 -120.632416 208 218ft 0kts
15-Mar-23 10:19 35.235324 -120.637496 305 243ft 72kts
15-Mar-23 10:20 35.242408 -120.661119 227 1197ft 93kts
15-Mar-23 10:21 35.219500 -120.646247 133 1138ft 117kts
15-Mar-23 10:22 35.215581 -120.621569 24 909ft 80kts
15-Mar-23 10:23 35.231618 -120.631061 305 307ft 74kts
15-Mar-23 10:24 35.243694 -120.652625 304 764ft 85kts
15-Mar-23 10:25 35.235565 -120.656809 127 1195ft 105kts
15-Mar-23 10:26 35.218506 -120.630426 124 914ft 88kts
15-Mar-23 10:27 35.230523 -120.629184 305 371ft 78kts
15-Mar-23 10:28 35.242761 -120.650456 303 768ft 81kts
15-Mar-23 10:29 35.233770 -120.661268 127 1260ft 116kts
15-Mar-23 10:30 35.214900 -120.630343 112 1012ft 98kts
15-Mar-23 10:31 35.228928 -120.626441 305 392ft 81kts
15-Mar-23 10:32 35.240967 -120.646926 306 514ft 78kts
15-Mar-23 10:33 35.240485 -120.666425 162 1140ft 100kts
15-Mar-23 10:34 35.222143 -120.641828 134 1033ft 94kts
15-Mar-23 10:35 35.220585 -120.618914 16 765ft 76kts
15-Mar-23 10:36 35.233857 -120.634956 305 211ft 64kts
15-Mar-23 10:37 35.245399 -120.655075 306 1091ft 77kts
15-Mar-23 10:38 35.227465 -120.650598 125 1253ft 128kts
15-Mar-23 10:39 35.216280 -120.619477 45 855ft 94kts
15-Mar-23 10:40 35.231266 -120.630438 306 295ft 69kts
15-Mar-23 10:41 35.237181 -120.639950 3 194ft 9kts
15-Mar-23 10:42 35.238446 -120.640558 266 191ft 0kts

Navigation Log

Ident Type
Flight plan parsing failed, navigation log unavailable